createdAt,value
2023-01-27T00:01:22.323Z,94.16
2023-01-27T00:04:25.000Z,93.35
2023-01-27T00:07:27.598Z,92.93
2023-01-27T00:10:30.305Z,92.59
2023-01-27T00:13:33.824Z,93.05
2023-01-27T00:16:36.781Z,93.37
2023-01-27T00:19:39.412Z,93.11
2023-01-27T00:23:00.468Z,92.67
2023-01-27T00:26:06.843Z,92.05
2023-01-27T00:29:09.669Z,92.64
2023-01-27T00:32:31.085Z,92.34
2023-01-27T00:35:35.141Z,92.35
2023-01-27T00:38:43.742Z,92.48
2023-01-27T00:41:46.551Z,92.01
2023-01-27T00:45:07.603Z,92.11
2023-01-27T00:48:10.383Z,91.67
2023-01-27T00:51:14.327Z,91.96
2023-01-27T00:54:17.653Z,92.91
2023-01-27T00:57:22.015Z,93.05
2023-01-27T01:00:24.871Z,92.72
2023-01-27T01:03:31.861Z,92.52
2023-01-27T01:06:34.604Z,91.77
2023-01-27T01:09:37.178Z,91.52
2023-01-27T01:12:40.290Z,91.68
2023-01-27T01:15:43.245Z,92.46
2023-01-27T01:18:46.480Z,92.20
2023-01-27T01:21:49.078Z,92.54
2023-01-27T01:24:51.584Z,92.74
2023-01-27T01:27:54.332Z,92.42
2023-01-27T01:30:57.645Z,92.24
2023-01-27T01:34:01.194Z,92.29
2023-01-27T01:37:04.517Z,92.32
2023-01-27T01:40:08.674Z,92.25
2023-01-27T01:43:18.812Z,92.50
2023-01-27T01:46:21.676Z,92.51
2023-01-27T01:49:28.685Z,92.38
2023-01-27T01:52:31.377Z,92.42
2023-01-27T01:55:34.874Z,92.16
2023-01-27T01:58:37.616Z,92.75
2023-01-27T02:01:43.792Z,93.34
2023-01-27T02:04:55.822Z,92.77
2023-01-27T02:08:18.564Z,92.50
2023-01-27T02:11:24.844Z,92.87
2023-01-27T02:14:31.241Z,93.20
2023-01-27T02:17:34.919Z,93.35
2023-01-27T02:20:44.092Z,94.13
2023-01-27T02:23:51.308Z,94.49
2023-01-27T02:26:54.642Z,95.20
2023-01-27T02:30:00.768Z,95.30
2023-01-27T02:33:16.427Z,95.50
2023-01-27T02:36:21.067Z,95.79
2023-01-27T02:39:33.797Z,96.12
2023-01-27T02:42:39.318Z,95.76
2023-01-27T02:45:42.919Z,95.83
2023-01-27T02:48:46.491Z,96.37
2023-01-27T02:51:49.954Z,96.12
2023-01-27T02:54:53.319Z,96.50
2023-01-27T02:57:56.660Z,96.96
2023-01-27T03:01:11.579Z,96.54
2023-01-27T03:04:17.455Z,97.02
2023-01-27T03:07:21.013Z,96.00
2023-01-27T03:10:26.391Z,95.80
2023-01-27T03:13:30.488Z,95.99
2023-01-27T03:16:52.746Z,95.25
2023-01-27T03:19:56.261Z,95.11
2023-01-27T03:23:01.630Z,94.92
2023-01-27T03:26:13.074Z,95.01
2023-01-27T03:29:39.032Z,95.23
2023-01-27T03:32:47.320Z,95.46
2023-01-27T03:36:37.695Z,96.01
2023-01-27T03:39:59.487Z,96.66
2023-01-27T03:43:21.644Z,96.90
2023-01-27T03:46:25.153Z,96.91
2023-01-27T03:49:33.860Z,97.03
2023-01-27T03:52:40.878Z,96.51
2023-01-27T03:55:44.068Z,95.93
2023-01-27T03:58:49.574Z,95.79
2023-01-27T04:01:53.713Z,94.92
2023-01-27T04:05:15.828Z,94.96
2023-01-27T04:08:19.285Z,94.12
2023-01-27T04:11:49.378Z,92.34
2023-01-27T04:14:55.825Z,92.51
2023-01-27T04:17:59.625Z,90.63
2023-01-27T04:21:02.850Z,90.47
2023-01-27T04:24:17.784Z,89.63
2023-01-27T04:27:21.405Z,89.05
2023-01-27T04:30:24.916Z,87.36
2023-01-27T04:33:28.586Z,87.88
2023-01-27T04:36:35.564Z,87.65
2023-01-27T04:39:39.076Z,87.04
2023-01-27T04:42:42.300Z,86.31
2023-01-27T04:45:48.434Z,85.59
2023-01-27T04:48:51.724Z,84.81
2023-01-27T04:52:00.177Z,86.00
2023-01-27T04:55:03.868Z,86.02
2023-01-27T04:58:07.354Z,86.19
2023-01-27T05:01:11.070Z,85.84
2023-01-27T05:04:17.058Z,85.26
2023-01-27T05:07:22.932Z,85.54
2023-01-27T05:10:29.196Z,86.43
2023-01-27T05:13:32.836Z,88.16
2023-01-27T05:16:40.426Z,88.34
2023-01-27T05:19:44.032Z,89.17
2023-01-27T05:22:47.805Z,89.18
2023-01-27T05:25:55.251Z,89.36
2023-01-27T05:29:01.647Z,88.21
2023-01-27T05:32:08.591Z,88.36
2023-01-27T05:35:12.496Z,88.34
2023-01-27T05:38:16.255Z,88.50
2023-01-27T05:41:20.606Z,88.06
2023-01-27T05:44:24.036Z,88.08
2023-01-27T05:47:30.215Z,89.11
2023-01-27T05:50:33.641Z,88.53
2023-01-27T05:53:37.118Z,88.41
2023-01-27T05:56:41.335Z,88.13
2023-01-27T05:59:44.523Z,88.32
2023-01-27T06:02:48.741Z,88.91
2023-01-27T06:06:00.615Z,88.06
2023-01-27T06:09:07.163Z,87.62
2023-01-27T06:12:11.056Z,87.10
2023-01-27T06:15:14.970Z,84.93
2023-01-27T06:18:22.670Z,86.32
2023-01-27T06:21:25.990Z,84.82
2023-01-27T06:24:29.947Z,86.12
2023-01-27T06:27:33.412Z,85.60
2023-01-27T06:30:38.294Z,85.00
2023-01-27T06:33:42.213Z,85.42
2023-01-27T06:36:45.639Z,85.63
2023-01-27T06:39:48.780Z,84.89
2023-01-27T06:42:52.446Z,85.65
2023-01-27T06:45:57.921Z,85.66
2023-01-27T06:49:01.941Z,86.27
2023-01-27T06:52:05.221Z,85.90
2023-01-27T06:55:11.545Z,85.76
2023-01-27T06:58:16.480Z,85.29
2023-01-27T07:01:20.173Z,85.62
2023-01-27T07:04:23.789Z,86.57
2023-01-27T07:07:27.133Z,86.19
2023-01-27T07:10:30.231Z,83.54
2023-01-27T07:13:33.942Z,83.25
2023-01-27T07:16:37.668Z,83.77
2023-01-27T07:19:41.159Z,83.87
2023-01-27T07:22:43.901Z,83.21
2023-01-27T07:25:46.704Z,82.88
2023-01-27T07:28:49.391Z,82.58
2023-01-27T07:31:52.235Z,82.22
2023-01-27T07:34:55.022Z,83.48
2023-01-27T07:37:58.186Z,80.96
2023-01-27T07:41:04.632Z,81.86
2023-01-27T07:44:07.768Z,82.36
2023-01-27T07:47:11.391Z,80.86
2023-01-27T07:50:14.719Z,77.98
2023-01-27T07:53:18.059Z,78.59
2023-01-27T07:56:22.959Z,77.50
2023-01-27T07:59:25.799Z,76.03
2023-01-27T08:02:28.800Z,74.43
2023-01-27T08:05:33.663Z,74.89
2023-01-27T08:08:38.101Z,76.22
2023-01-27T08:11:41.117Z,76.96
2023-01-27T08:14:43.805Z,77.33
2023-01-27T08:17:56.792Z,76.74
2023-01-27T08:21:01.818Z,76.27
2023-01-27T08:24:04.832Z,76.20
2023-01-27T08:27:08.376Z,74.69
2023-01-27T08:30:12.086Z,76.12
2023-01-27T08:33:14.991Z,74.45
2023-01-27T08:36:18.960Z,74.07
2023-01-27T08:39:22.595Z,76.60
2023-01-27T08:42:25.362Z,76.44
2023-01-27T08:45:29.807Z,74.68
2023-01-27T08:48:33.315Z,73.69
2023-01-27T08:51:36.489Z,75.33
2023-01-27T08:54:39.199Z,74.95
2023-01-27T08:57:42.216Z,74.97
2023-01-27T09:00:46.014Z,73.45
2023-01-27T09:03:49.078Z,74.08
2023-01-27T09:06:54.275Z,73.22
2023-01-27T09:10:12.780Z,74.96
2023-01-27T09:13:22.494Z,73.78
2023-01-27T09:16:26.309Z,73.43
2023-01-27T09:19:29.139Z,73.86
2023-01-27T09:22:32.046Z,72.92
2023-01-27T09:25:34.952Z,73.00
2023-01-27T09:28:37.768Z,72.69
2023-01-27T09:31:40.881Z,72.36
2023-01-27T09:34:44.322Z,72.27
2023-01-27T09:37:50.668Z,71.58
2023-01-27T09:41:32.729Z,70.76
2023-01-27T09:44:55.261Z,71.02
2023-01-27T09:48:01.217Z,70.94
2023-01-27T09:51:28.766Z,70.38
2023-01-27T09:55:02.213Z,71.24
2023-01-27T09:58:19.018Z,70.78
2023-01-27T10:01:32.000Z,70.53
2023-01-27T10:04:53.892Z,70.34
2023-01-27T10:08:13.016Z,69.98
2023-01-27T10:11:28.865Z,70.54
2023-01-27T10:14:31.458Z,70.98
2023-01-27T10:18:04.003Z,69.59
2023-01-27T10:21:06.641Z,69.21
2023-01-27T10:24:25.700Z,69.75
2023-01-27T10:27:35.076Z,69.21
2023-01-27T10:30:38.989Z,68.74
2023-01-27T10:33:44.917Z,69.52
2023-01-27T10:37:03.313Z,68.54
2023-01-27T10:40:15.459Z,69.01
2023-01-27T10:43:21.308Z,68.21
2023-01-27T10:46:40.068Z,67.95
2023-01-27T10:50:06.768Z,68.06
2023-01-27T10:53:20.518Z,68.38
2023-01-27T10:56:45.351Z,68.21
2023-01-27T11:00:46.158Z,68.32
2023-01-27T11:03:43.390Z,67.73
2023-01-27T11:06:47.172Z,67.10
2023-01-27T11:10:00.282Z,68.24
2023-01-27T11:13:05.173Z,68.22
2023-01-27T11:16:17.896Z,68.00
2023-01-27T11:19:31.784Z,68.11
2023-01-27T11:22:54.307Z,68.71
2023-01-27T11:26:10.943Z,68.25
2023-01-27T11:29:35.997Z,67.40
2023-01-27T11:32:50.841Z,68.61
2023-01-27T11:35:54.131Z,68.22
2023-01-27T11:38:58.491Z,66.78
2023-01-27T11:42:01.435Z,67.89
2023-01-27T11:45:12.138Z,68.03
2023-01-27T11:48:17.529Z,67.14
2023-01-27T11:51:26.171Z,67.25
2023-01-27T11:54:29.639Z,67.25
2023-01-27T11:57:33.934Z,67.77
2023-01-27T12:01:16.207Z,67.82
2023-01-27T12:04:49.579Z,68.24
2023-01-27T12:07:59.545Z,67.67
2023-01-27T12:11:24.046Z,66.93
2023-01-27T12:14:28.001Z,68.11
2023-01-27T12:17:52.384Z,67.35
2023-01-27T12:21:04.098Z,67.79
2023-01-27T12:24:14.663Z,67.80
2023-01-27T12:27:26.209Z,66.63
2023-01-27T12:30:33.194Z,67.70
2023-01-27T12:33:38.767Z,68.06
2023-01-27T12:36:44.226Z,67.72
2023-01-27T12:39:53.431Z,67.87
2023-01-27T12:43:02.595Z,68.95
2023-01-27T12:46:11.508Z,68.05
2023-01-27T12:49:16.541Z,67.86
2023-01-27T12:52:22.241Z,68.93
2023-01-27T12:55:35.362Z,69.12
2023-01-27T12:58:56.830Z,69.51
2023-01-27T13:02:12.706Z,68.29
2023-01-27T13:05:19.058Z,68.93
2023-01-27T13:08:22.370Z,69.24
2023-01-27T13:11:38.494Z,68.91
2023-01-27T13:14:42.768Z,69.27
2023-01-27T13:17:49.380Z,69.21
2023-01-27T13:20:57.574Z,68.84
2023-01-27T13:24:04.325Z,69.47
2023-01-27T13:27:14.456Z,69.25
2023-01-27T13:30:29.127Z,68.89
2023-01-27T13:34:08.142Z,69.06
2023-01-27T13:37:18.672Z,68.85
2023-01-27T13:40:44.599Z,68.59
2023-01-27T13:43:56.843Z,68.98
2023-01-27T13:47:05.034Z,68.79
2023-01-27T13:50:29.054Z,67.75
2023-01-27T13:53:32.814Z,68.30
2023-01-27T13:56:38.742Z,67.20
2023-01-27T14:00:15.619Z,68.62
2023-01-27T14:03:27.833Z,68.84
2023-01-27T14:06:46.343Z,69.50
2023-01-27T14:10:01.487Z,68.85
2023-01-27T14:13:22.899Z,68.20
2023-01-27T14:16:41.837Z,68.49
2023-01-27T14:20:08.997Z,70.25
2023-01-27T14:23:18.071Z,68.28
2023-01-27T14:26:21.361Z,68.88
2023-01-27T14:29:58.782Z,69.95
2023-01-27T14:33:04.379Z,70.12
2023-01-27T14:36:23.181Z,69.55
2023-01-27T14:39:45.084Z,70.47
2023-01-27T14:43:08.496Z,70.62
2023-01-27T14:46:18.738Z,71.53
2023-01-27T14:49:43.130Z,71.77
2023-01-27T14:53:08.557Z,71.11
2023-01-27T14:56:36.141Z,72.21
2023-01-27T14:59:59.721Z,72.23
2023-01-27T15:03:33.154Z,72.36
2023-01-27T15:06:43.103Z,73.17
2023-01-27T15:10:05.085Z,73.71
2023-01-27T15:13:28.440Z,74.75
2023-01-27T15:16:42.487Z,73.44
2023-01-27T15:19:45.341Z,74.67
2023-01-27T15:23:02.987Z,74.66
2023-01-27T15:26:07.284Z,74.76
2023-01-27T15:29:23.355Z,75.10
2023-01-27T15:32:28.750Z,75.66
2023-01-27T15:35:34.159Z,76.18
2023-01-27T15:38:37.736Z,76.12
2023-01-27T15:42:02.838Z,77.27
2023-01-27T15:45:05.908Z,78.49
2023-01-27T15:48:13.032Z,78.39
2023-01-27T15:51:20.027Z,80.10
2023-01-27T15:54:32.671Z,80.97
2023-01-27T15:57:39.392Z,81.85
2023-01-27T16:00:43.276Z,82.67
2023-01-27T16:03:48.838Z,83.79
2023-01-27T16:07:02.678Z,83.77
2023-01-27T16:10:09.013Z,84.40
2023-01-27T16:13:23.654Z,85.38
2023-01-27T16:16:31.614Z,85.70
2023-01-27T16:19:39.729Z,85.15
2023-01-27T16:22:44.938Z,86.18
2023-01-27T16:26:08.883Z,85.02
2023-01-27T16:29:47.125Z,86.32
2023-01-27T16:33:04.867Z,86.05
2023-01-27T16:36:09.410Z,85.90
2023-01-27T16:39:18.869Z,86.02
2023-01-27T16:42:30.103Z,85.77
2023-01-27T16:45:43.901Z,86.19
2023-01-27T16:48:48.407Z,84.66
2023-01-27T16:51:59.530Z,86.38
2023-01-27T16:55:03.399Z,85.87
2023-01-27T16:58:06.780Z,84.46
2023-01-27T17:01:20.505Z,86.07
2023-01-27T17:04:25.866Z,85.56
2023-01-27T17:07:29.272Z,85.55
2023-01-27T17:10:35.092Z,85.36
2023-01-27T17:13:51.814Z,84.45
2023-01-27T17:16:58.934Z,84.78
2023-01-27T17:20:04.758Z,85.99
2023-01-27T17:23:07.881Z,84.87
2023-01-27T17:26:16.859Z,85.65
2023-01-27T17:29:22.432Z,86.74
2023-01-27T17:32:27.416Z,86.90
2023-01-27T17:35:34.172Z,87.87
2023-01-27T17:38:49.261Z,88.23
2023-01-27T17:41:56.140Z,88.34
2023-01-27T17:45:21.473Z,87.73
2023-01-27T17:48:24.706Z,86.89
2023-01-27T17:51:34.598Z,86.32
2023-01-27T17:54:43.777Z,88.42
2023-01-27T17:57:49.985Z,88.27
2023-01-27T18:00:54.496Z,88.53
2023-01-27T18:03:58.639Z,89.18
2023-01-27T18:07:01.799Z,88.86
2023-01-27T18:10:22.922Z,87.85
2023-01-27T18:13:27.551Z,88.26
2023-01-27T18:16:30.855Z,88.40
2023-01-27T18:19:34.651Z,88.11
2023-01-27T18:22:43.838Z,88.21
2023-01-27T18:25:51.562Z,87.60
2023-01-27T18:29:04.406Z,87.61
2023-01-27T18:32:11.161Z,87.04
2023-01-27T18:35:26.571Z,86.82
2023-01-27T18:38:33.222Z,86.39
2023-01-27T18:41:38.579Z,86.31
2023-01-27T18:44:41.823Z,86.47
2023-01-27T18:47:48.373Z,85.94
2023-01-27T18:50:51.612Z,86.05
2023-01-27T18:53:54.814Z,84.80
2023-01-27T18:56:57.695Z,84.69
2023-01-27T19:00:01.320Z,85.16
2023-01-27T19:03:06.130Z,85.16
2023-01-27T19:06:16.048Z,85.04
2023-01-27T19:09:19.542Z,85.06
2023-01-27T19:12:22.615Z,85.00
2023-01-27T19:15:35.050Z,85.83
2023-01-27T19:18:39.177Z,85.45
2023-01-27T19:21:42.093Z,84.84
2023-01-27T19:24:50.121Z,84.81
2023-01-27T19:27:55.804Z,84.29
2023-01-27T19:31:00.524Z,84.48
2023-01-27T19:34:04.320Z,84.78
2023-01-27T19:37:16.951Z,83.83
2023-01-27T19:40:25.131Z,84.65
2023-01-27T19:43:28.816Z,84.78
2023-01-27T19:46:34.117Z,85.00
2023-01-27T19:49:37.730Z,84.59
2023-01-27T19:52:41.223Z,84.23
2023-01-27T19:55:45.792Z,84.74
2023-01-27T19:58:52.363Z,84.73
2023-01-27T20:01:57.205Z,83.20
2023-01-27T20:05:03.392Z,83.60
2023-01-27T20:08:06.912Z,83.76
2023-01-27T20:11:35.681Z,83.55
2023-01-27T20:14:40.373Z,83.27
2023-01-27T20:17:43.429Z,83.21
2023-01-27T20:20:47.636Z,82.36
2023-01-27T20:23:51.712Z,82.63
2023-01-27T20:26:57.287Z,82.34
2023-01-27T20:30:01.581Z,81.64
2023-01-27T20:33:05.402Z,82.15
2023-01-27T20:36:14.049Z,82.01
2023-01-27T20:39:17.705Z,81.67
2023-01-27T20:42:21.301Z,81.02
2023-01-27T20:45:25.292Z,81.25
2023-01-27T20:48:28.631Z,80.83
2023-01-27T20:51:33.890Z,81.28
2023-01-27T20:54:37.136Z,81.86
2023-01-27T20:57:40.428Z,81.84
2023-01-27T21:00:45.155Z,80.60
2023-01-27T21:03:48.651Z,80.29
2023-01-27T21:06:54.500Z,80.89
2023-01-27T21:09:59.738Z,80.86
2023-01-27T21:13:03.275Z,80.35
2023-01-27T21:16:06.934Z,80.68
2023-01-27T21:19:10.327Z,80.37
2023-01-27T21:22:13.510Z,80.23
2023-01-27T21:25:17.278Z,81.43
2023-01-27T21:28:20.873Z,80.99
2023-01-27T21:31:30.593Z,81.09
2023-01-27T21:34:34.248Z,80.74
2023-01-27T21:37:38.810Z,80.37
2023-01-27T21:40:42.332Z,80.35
2023-01-27T21:44:04.229Z,81.15
2023-01-27T21:47:09.733Z,80.12
2023-01-27T21:50:15.090Z,80.21
2023-01-27T21:53:18.950Z,80.18
2023-01-27T21:56:24.328Z,79.77
2023-01-27T21:59:27.807Z,80.66
2023-01-27T22:02:31.290Z,80.13
2023-01-27T22:05:36.801Z,79.01
2023-01-27T22:08:39.917Z,79.67
2023-01-27T22:11:43.072Z,79.58
2023-01-27T22:14:45.939Z,79.66
2023-01-27T22:17:49.051Z,79.49
2023-01-27T22:20:52.078Z,79.04
2023-01-27T22:23:55.085Z,79.58
2023-01-27T22:26:58.252Z,79.37
2023-01-27T22:30:01.093Z,78.75
2023-01-27T22:33:04.561Z,78.79
2023-01-27T22:36:07.777Z,78.51
2023-01-27T22:39:11.348Z,79.12
2023-01-27T22:42:14.188Z,78.94
2023-01-27T22:45:17.589Z,78.74
2023-01-27T22:48:20.766Z,79.40
2023-01-27T22:51:24.219Z,78.78
2023-01-27T22:54:27.205Z,78.39
2023-01-27T22:57:32.145Z,78.80
2023-01-27T23:00:38.259Z,77.96
2023-01-27T23:03:41.387Z,78.84
2023-01-27T23:06:44.396Z,78.49
2023-01-27T23:09:47.040Z,77.90
2023-01-27T23:12:49.601Z,77.41
2023-01-27T23:15:52.751Z,76.87
2023-01-27T23:18:55.715Z,77.52
2023-01-27T23:21:58.479Z,76.98
2023-01-27T23:25:01.273Z,76.67
2023-01-27T23:28:04.006Z,76.92
2023-01-27T23:31:11.872Z,76.66
2023-01-27T23:34:14.557Z,76.96
2023-01-27T23:37:17.604Z,76.54
2023-01-27T23:40:20.402Z,77.80
2023-01-27T23:43:24.492Z,78.06
2023-01-27T23:46:28.246Z,77.87
2023-01-27T23:49:30.992Z,78.30
2023-01-27T23:52:36.566Z,78.31
2023-01-27T23:55:39.564Z,78.52
2023-01-27T23:58:43.431Z,79.40
